Aullville, Missouri
Current Conditions -  °F | °C
As of 11:15 AM on Sunday 25 Jan 2015 (Local Time) from KRCM Reporting Station
Drizzle Drizzle  
Wind Chill: 27°   Ceiling: 1500
Heat Index: 37°   Visibility: 10mi
Dew Point: 32°   Wind: 20mph
Humidity: 81%   Direction: 310°NW
Pressure: 29.75"   Gusts: 26mph
Location:  39.0541°N, 93.6618°W
Report Text: KRCM 251715Z AUTO 31017G23KT 10SM -DZ OVC015 03/00 A2975 RMK AO2
Loading
Personal Weather Stations






























Interactive Weather Map New forecast layout! Learn more

10-Day Weather Forecast

Advertisements
Track Severe Weather on mobile